Time;durP1;ratioP1;P1;durP2;ratioP2;P2;SDS_P1;SDS_P2;PMS_P1;PMS_P2;Temp;Humidity;BMP_temperature;BMP_pressure;BME280_temperature;BME280_humidity;BME280_pressure;Samples;Min_cycle;Max_cycle;Signal;HPM_P1;HPM_P2
2023/08/07 00:02:02;;;;;;;9.07;6.43;;;15.30;99.90;;;;;;5053725;28;20230;-80
2023/08/07 00:04:29;;;;;;;8.30;6.07;;;15.10;99.90;;;;;;5039712;28;20195;-80
2023/08/07 00:06:57;;;;;;;10.50;6.43;;;15.30;99.90;;;;;;5051743;28;20195;-81
2023/08/07 00:09:24;;;;;;;8.70;6.60;;;15.30;99.90;;;;;;5052835;28;20206;-81
2023/08/07 00:11:51;;;;;;;10.77;7.03;;;15.40;99.90;;;;;;5049950;28;20272;-80
2023/08/07 00:14:18;;;;;;;12.80;7.13;;;15.40;99.90;;;;;;5044147;28;20224;-80
2023/08/07 00:16:45;;;;;;;11.20;6.80;;;15.40;99.90;;;;;;5042147;28;20265;-81
2023/08/07 00:19:12;;;;;;;9.10;6.35;;;15.40;99.90;;;;;;5045871;28;20722;-80
2023/08/07 00:21:39;;;;;;;11.07;6.63;;;15.40;99.90;;;;;;5055547;28;20271;-80
2023/08/07 00:24:07;;;;;;;11.05;6.78;;;15.50;99.90;;;;;;5040728;28;20207;-80
2023/08/07 00:26:35;;;;;;;11.32;7.20;;;15.50;99.90;;;;;;5047414;28;20234;-80
2023/08/07 00:29:02;;;;;;;10.80;7.65;;;15.50;99.90;;;;;;5047265;28;20246;-81
2023/08/07 00:31:31;;;;;;;10.18;7.00;;;15.50;99.90;;;;;;5043003;28;20227;-81
2023/08/07 00:33:57;;;;;;;12.15;6.85;;;15.50;99.90;;;;;;5059757;28;20262;-82
2023/08/07 00:36:25;;;;;;;11.45;7.82;;;15.50;99.90;;;;;;5052652;28;20287;-81
2023/08/07 00:38:52;;;;;;;11.48;7.18;;;15.50;99.90;;;;;;5059034;28;20223;-80
2023/08/07 00:41:21;;;;;;;12.82;7.43;;;15.50;99.90;;;;;;5044786;28;20200;-80
2023/08/07 00:43:47;;;;;;;12.30;6.75;;;15.40;99.90;;;;;;5055955;28;20238;-81
2023/08/07 00:46:15;;;;;;;10.82;7.03;;;15.30;99.90;;;;;;5053128;28;20227;-81
2023/08/07 00:48:42;;;;;;;12.80;7.40;;;15.30;99.90;;;;;;5050209;28;20318;-80
2023/08/07 00:51:10;;;;;;;10.32;6.75;;;15.20;99.90;;;;;;5058182;28;20558;-81
2023/08/07 00:53:39;;;;;;;9.63;7.03;;;15.30;99.90;;;;;;5051498;28;20213;-80
2023/08/07 00:56:06;;;;;;;10.38;6.65;;;15.30;99.90;;;;;;5043707;28;20199;-80
2023/08/07 00:58:35;;;;;;;11.23;6.90;;;15.30;99.90;;;;;;5050700;28;20364;-80
2023/08/07 01:01:02;;;;;;;12.55;6.68;;;15.30;99.90;;;;;;5053778;28;20661;-80
2023/08/07 01:03:29;;;;;;;8.68;6.75;;;15.30;99.90;;;;;;5046806;28;20207;-81
2023/08/07 01:05:56;;;;;;;8.43;6.32;;;15.30;99.90;;;;;;5056526;28;20207;-81
2023/08/07 01:08:23;;;;;;;10.00;6.90;;;15.30;99.90;;;;;;5045501;28;20227;-81
2023/08/07 01:11:04;;;;;;;9.73;7.45;;;15.30;99.90;;;;;;5051910;28;20203;-80
2023/08/07 01:13:44;;;;;;;11.25;7.10;;;15.30;99.90;;;;;;5043111;28;20219;-80
2023/08/07 01:16:19;;;;;;;9.93;6.97;;;15.30;99.90;;;;;;5044463;28;20219;-81
2023/08/07 01:18:46;;;;;;;10.32;6.47;;;15.30;99.90;;;;;;5042191;28;20791;-80
2023/08/07 01:21:18;;;;;;;8.55;6.85;;;15.20;99.90;;;;;;5051768;28;20199;-80
2023/08/07 01:23:47;;;;;;;9.05;6.78;;;15.20;99.90;;;;;;5045953;28;20207;-81
2023/08/07 01:26:14;;;;;;;11.35;7.20;;;15.20;99.90;;;;;;5059565;28;20551;-81
2023/08/07 01:28:47;;;;;;;9.23;6.72;;;15.20;99.90;;;;;;5042760;28;20257;-80
2023/08/07 01:31:17;;;;;;;11.85;7.30;;;15.10;99.90;;;;;;5048209;28;20199;-80
2023/08/07 01:33:51;;;;;;;11.48;7.75;;;15.20;99.90;;;;;;5057975;28;20230;-80
2023/08/07 01:36:19;;;;;;;9.82;7.38;;;15.20;99.90;;;;;;5040950;28;20195;-81
2023/08/07 01:38:49;;;;;;;11.93;7.40;;;15.30;99.90;;;;;;5052636;28;20259;-81
2023/08/07 01:41:16;;;;;;;10.68;6.72;;;15.30;99.90;;;;;;5055412;28;20202;-81
2023/08/07 01:43:43;;;;;;;12.48;7.38;;;15.30;99.90;;;;;;5054280;28;20711;-80
2023/08/07 01:46:11;;;;;;;10.18;7.13;;;15.20;99.90;;;;;;5046227;28;20639;-81
2023/08/07 01:48:38;;;;;;;12.15;7.82;;;15.20;99.90;;;;;;5052378;28;20238;-81
2023/08/07 01:51:05;;;;;;;10.23;6.60;;;15.10;99.90;;;;;;5051130;28;20726;-80
2023/08/07 01:53:32;;;;;;;13.02;6.88;;;15.20;99.90;;;;;;5043054;28;20288;-80
2023/08/07 01:56:00;;;;;;;9.68;6.30;;;15.10;99.90;;;;;;5051012;28;20250;-81
2023/08/07 01:58:27;;;;;;;10.90;7.05;;;15.20;99.90;;;;;;5048527;28;20299;-81
2023/08/07 02:00:54;;;;;;;10.05;6.50;;;15.10;99.90;;;;;;5055996;28;20757;-81
2023/08/07 02:03:21;;;;;;;10.70;6.63;;;15.10;99.90;;;;;;5055617;28;20212;-81
2023/08/07 02:05:48;;;;;;;9.98;6.13;;;15.10;99.90;;;;;;5045314;28;20267;-80
2023/08/07 02:08:24;;;;;;;13.63;6.97;;;15.10;99.90;;;;;;5052937;28;20230;-80
2023/08/07 02:10:52;;;;;;;12.35;6.10;;;15.10;99.90;;;;;;5049009;28;20432;-80
2023/08/07 02:13:20;;;;;;;9.57;6.78;;;15.10;99.90;;;;;;5052817;28;20204;-79
2023/08/07 02:15:47;;;;;;;9.15;6.22;;;15.00;99.90;;;;;;5052641;28;20216;-81
2023/08/07 02:18:14;;;;;;;12.20;7.07;;;15.00;99.90;;;;;;5057753;28;20301;-82
2023/08/07 02:20:40;;;;;;;9.85;6.20;;;15.00;99.90;;;;;;5052605;28;20234;-81
2023/08/07 02:23:07;;;;;;;7.57;5.43;;;15.00;99.90;;;;;;5055858;28;20195;-81
2023/08/07 02:25:35;;;;;;;10.23;6.40;;;15.10;99.90;;;;;;5062781;28;20226;-81
2023/08/07 02:28:01;;;;;;;11.75;5.47;;;15.00;99.90;;;;;;5054203;28;20222;-81
2023/08/07 02:30:31;;;;;;;8.43;5.70;;;15.00;99.90;;;;;;5055778;28;20222;-81
2023/08/07 02:32:58;;;;;;;9.85;5.40;;;15.00;99.90;;;;;;5054079;28;20241;-81
2023/08/07 02:35:24;;;;;;;11.57;5.68;;;14.90;99.90;;;;;;5051522;28;20202;-81
2023/08/07 02:37:51;;;;;;;9.45;5.47;;;14.90;99.90;;;;;;5049385;28;20254;-81
2023/08/07 02:40:19;;;;;;;9.48;6.68;;;14.90;99.90;;;;;;5054055;28;20238;-80
2023/08/07 02:42:45;;;;;;;11.10;7.20;;;14.90;99.90;;;;;;5046020;28;20200;-80
2023/08/07 02:45:12;;;;;;;7.00;4.30;;;14.80;99.90;;;;;;5042631;28;20195;-81
2023/08/07 02:47:40;;;;;;;11.73;4.78;;;14.80;99.90;;;;;;5052633;28;20222;-82
2023/08/07 02:50:08;;;;;;;6.47;4.22;;;14.70;99.90;;;;;;5048826;28;20203;-81
2023/08/07 02:52:35;;;;;;;8.50;4.75;;;14.70;99.90;;;;;;5055026;28;20213;-81
2023/08/07 02:55:02;;;;;;;8.20;4.20;;;14.70;99.90;;;;;;5051974;28;20254;-81
2023/08/07 02:57:28;;;;;;;10.25;4.75;;;14.70;99.90;;;;;;5050744;28;20223;-81
2023/08/07 02:59:55;;;;;;;7.38;4.43;;;14.60;99.90;;;;;;5051288;28;20211;-82
2023/08/07 03:02:22;;;;;;;9.02;4.70;;;14.60;99.90;;;;;;5046641;28;20582;-82
2023/08/07 03:04:50;;;;;;;7.95;4.82;;;14.60;99.90;;;;;;5046742;28;20699;-80
2023/08/07 03:07:17;;;;;;;10.25;4.70;;;14.50;99.90;;;;;;5047807;28;20238;-80
2023/08/07 03:09:46;;;;;;;7.22;5.15;;;14.50;99.90;;;;;;5041760;28;20200;-80
2023/08/07 03:12:14;;;;;;;8.00;4.90;;;14.50;99.90;;;;;;5049011;28;20203;-84
2023/08/07 03:14:41;;;;;;;7.75;4.63;;;14.60;99.90;;;;;;5049534;28;20206;-80
2023/08/07 03:17:07;;;;;;;9.75;4.90;;;14.50;99.90;;;;;;5047478;28;20199;-79
2023/08/07 03:19:34;;;;;;;5.35;4.32;;;14.50;99.90;;;;;;5049500;28;20271;-80
2023/08/07 03:22:03;;;;;;;8.63;4.78;;;14.50;99.90;;;;;;5048087;28;20207;-81
2023/08/07 03:24:30;;;;;;;8.88;4.80;;;14.50;99.90;;;;;;5041903;28;20203;-79
2023/08/07 03:26:57;;;;;;;6.45;4.53;;;14.50;99.90;;;;;;5033358;28;20207;-78
2023/08/07 03:29:24;;;;;;;7.80;5.30;;;14.50;99.90;;;;;;5035577;28;20231;-79
2023/08/07 03:31:51;;;;;;;9.70;5.80;;;14.50;99.90;;;;;;5042915;28;20215;-81
2023/08/07 03:34:18;;;;;;;8.02;5.43;;;14.50;99.90;;;;;;5043305;28;20203;-80
2023/08/07 03:36:45;;;;;;;8.40;4.88;;;14.60;99.90;;;;;;5042579;28;20262;-80
2023/08/07 03:39:13;;;;;;;12.48;5.63;;;14.60;99.90;;;;;;5039578;28;20294;-80
2023/08/07 03:41:40;;;;;;;7.57;5.07;;;14.60;99.90;;;;;;5051174;28;20207;-80
2023/08/07 03:44:07;;;;;;;7.47;4.80;;;14.70;99.90;;;;;;5038509;28;20210;-80
2023/08/07 03:46:34;;;;;;;5.57;4.38;;;14.60;99.90;;;;;;5050780;28;20230;-80
2023/08/07 03:49:01;;;;;;;9.45;5.40;;;14.70;99.90;;;;;;5035393;28;20616;-79
2023/08/07 03:51:29;;;;;;;6.13;4.38;;;14.70;99.90;;;;;;5045057;28;20232;-80
2023/08/07 03:53:55;;;;;;;7.28;4.95;;;14.70;99.90;;;;;;5044434;28;20203;-80
2023/08/07 03:56:24;;;;;;;8.85;5.45;;;14.80;99.90;;;;;;5048081;28;20586;-80
2023/08/07 03:58:51;;;;;;;8.98;5.25;;;14.70;99.90;;;;;;5049160;28;20226;-81
2023/08/07 04:01:18;;;;;;;10.90;4.97;;;14.80;99.90;;;;;;5040862;28;20213;-80
2023/08/07 04:03:46;;;;;;;6.47;5.32;;;14.70;99.90;;;;;;5048298;28;20199;-80
2023/08/07 04:06:15;;;;;;;8.38;4.95;;;14.80;99.90;;;;;;5049435;28;20199;-79
2023/08/07 04:08:42;;;;;;;9.27;5.40;;;14.80;99.90;;;;;;5048753;28;20234;-79
2023/08/07 04:11:09;;;;;;;9.35;5.45;;;14.80;99.90;;;;;;5051403;28;20209;-79
2023/08/07 04:13:38;;;;;;;6.32;5.10;;;14.80;99.90;;;;;;5050972;28;20203;-78
2023/08/07 04:16:05;;;;;;;10.43;6.00;;;14.80;99.90;;;;;;5049232;28;20237;-79
2023/08/07 04:18:33;;;;;;;6.65;5.38;;;14.90;99.90;;;;;;5042272;28;20310;-80
2023/08/07 04:21:00;;;;;;;8.18;5.20;;;14.90;99.90;;;;;;5048412;28;20670;-79
2023/08/07 04:23:27;;;;;;;6.95;5.43;;;14.80;99.90;;;;;;5051902;28;20202;-79
2023/08/07 04:25:54;;;;;;;6.75;5.45;;;14.90;99.90;;;;;;5060240;28;20198;-80
2023/08/07 04:28:21;;;;;;;10.52;5.68;;;14.90;99.90;;;;;;5040219;28;20225;-80
2023/08/07 04:30:53;;;;;;;10.25;5.63;;;14.90;99.90;;;;;;5048770;28;20209;-80
2023/08/07 04:33:20;;;;;;;10.25;5.38;;;14.90;99.90;;;;;;5052194;28;20278;-80
2023/08/07 04:35:47;;;;;;;10.07;5.57;;;14.90;99.90;;;;;;5045499;28;20227;-80
2023/08/07 04:38:15;;;;;;;9.35;5.60;;;15.00;99.90;;;;;;5042520;28;20609;-80
2023/08/07 04:40:46;;;;;;;10.32;5.88;;;14.90;99.90;;;;;;5050376;28;20261;-80
2023/08/07 04:43:12;;;;;;;7.18;5.45;;;15.00;99.90;;;;;;5052571;28;20578;-80
2023/08/07 04:45:39;;;;;;;9.80;6.22;;;15.00;99.90;;;;;;5052137;28;20297;-80
2023/08/07 04:48:08;;;;;;;10.43;6.28;;;15.00;99.90;;;;;;5044587;28;20314;-81
2023/08/07 04:50:35;;;;;;;11.07;5.60;;;15.00;99.90;;;;;;5052517;28;20252;-80
2023/08/07 04:53:03;;;;;;;7.43;4.95;;;15.00;99.90;;;;;;5059217;28;20294;-80
2023/08/07 04:55:30;;;;;;;9.00;5.20;;;15.10;99.90;;;;;;5052217;28;20645;-79
2023/08/07 04:58:00;;;;;;;9.27;6.30;;;15.10;99.90;;;;;;5060376;28;20223;-79
2023/08/07 05:00:28;;;;;;;7.78;4.78;;;15.10;99.90;;;;;;5056890;28;20595;-80
2023/08/07 05:02:54;;;;;;;7.30;5.30;;;15.10;99.90;;;;;;5049546;28;20287;-80
2023/08/07 05:05:23;;;;;;;6.82;4.70;;;15.10;99.90;;;;;;5039994;28;20210;-80
2023/08/07 05:07:50;;;;;;;7.88;5.57;;;15.20;99.90;;;;;;5047113;28;20240;-81
2023/08/07 05:10:17;;;;;;;7.50;4.75;;;15.10;99.90;;;;;;5056703;28;20203;-81
2023/08/07 05:12:43;;;;;;;8.07;4.68;;;15.10;99.90;;;;;;5049025;28;20215;-80
2023/08/07 05:15:11;;;;;;;7.50;4.80;;;15.10;99.90;;;;;;5057192;28;20213;-81
2023/08/07 05:17:40;;;;;;;11.20;4.85;;;15.20;99.90;;;;;;5048506;28;20224;-80
2023/08/07 05:20:08;;;;;;;7.40;4.55;;;15.20;99.90;;;;;;5057696;28;20203;-80
2023/08/07 05:22:37;;;;;;;4.78;4.15;;;15.20;99.90;;;;;;5048956;28;20211;-81
2023/08/07 05:25:04;;;;;;;7.93;5.45;;;15.10;99.90;;;;;;5049894;28;20731;-80
2023/08/07 05:27:31;;;;;;;6.25;4.47;;;15.10;99.90;;;;;;5056878;28;20218;-81
2023/08/07 05:29:58;;;;;;;9.23;5.15;;;15.10;99.90;;;;;;5056562;28;20215;-81
2023/08/07 05:32:25;;;;;;;7.90;4.57;;;15.10;99.90;;;;;;5050775;28;20200;-80
2023/08/07 05:34:54;;;;;;;8.48;4.75;;;15.10;99.90;;;;;;5048641;28;20212;-81
2023/08/07 05:37:21;;;;;;;9.20;5.10;;;15.20;99.90;;;;;;5052097;28;20235;-80
2023/08/07 05:39:50;;;;;;;6.88;4.85;;;15.30;99.90;;;;;;5054686;28;20262;-80
2023/08/07 05:42:17;;;;;;;7.85;5.07;;;15.30;99.90;;;;;;5049408;28;20235;-81
2023/08/07 05:44:44;;;;;;;8.55;5.20;;;15.30;99.90;;;;;;5048977;28;20208;-80
2023/08/07 05:49:44;;;;;;;7.18;5.07;;;15.30;99.90;;;;;;5077935;28;20210;-79
2023/08/07 05:52:10;;;;;;;7.70;4.78;;;15.30;99.90;;;;;;5080212;28;20202;-79
2023/08/07 05:54:37;;;;;;;7.72;4.55;;;15.30;99.90;;;;;;5074134;28;20206;-80
2023/08/07 05:57:08;;;;;;;5.90;4.30;;;15.40;99.90;;;;;;5078499;28;20603;-80
2023/08/07 05:59:35;;;;;;;7.80;5.15;;;15.40;99.90;;;;;;5058764;28;20202;-80
2023/08/07 06:02:03;;;;;;;7.57;4.18;;;15.40;99.90;;;;;;5059353;28;20233;-79
2023/08/07 06:04:30;;;;;;;6.65;4.05;;;15.40;99.90;;;;;;5060248;28;20199;-80
2023/08/07 06:06:56;;;;;;;7.35;4.40;;;15.40;99.90;;;;;;5059786;28;20210;-80
2023/08/07 06:09:23;;;;;;;6.10;4.03;;;15.50;99.90;;;;;;5058789;28;20430;-80
2023/08/07 06:11:50;;;;;;;7.35;4.68;;;15.60;99.90;;;;;;5058073;28;20210;-79
2023/08/07 06:14:18;;;;;;;8.85;4.00;;;15.60;99.90;;;;;;5058701;28;20203;-80
2023/08/07 06:16:45;;;;;;;5.75;3.97;;;15.60;99.90;;;;;;5059112;28;20281;-80
2023/08/07 06:19:12;;;;;;;4.93;3.90;;;15.60;99.90;;;;;;5059609;28;20230;-80
2023/08/07 06:21:39;;;;;;;7.35;4.07;;;15.60;99.90;;;;;;5059513;28;20203;-80
2023/08/07 06:24:06;;;;;;;6.13;4.30;;;15.60;99.90;;;;;;5059403;28;20695;-80
2023/08/07 06:26:33;;;;;;;6.45;4.20;;;15.70;99.90;;;;;;5059879;28;20203;-79
2023/08/07 06:29:00;;;;;;;5.82;3.60;;;15.70;99.90;;;;;;5058414;28;20235;-80
2023/08/07 06:31:28;;;;;;;7.43;4.03;;;15.60;99.90;;;;;;5059404;28;20199;-80
2023/08/07 06:33:54;;;;;;;4.65;3.70;;;15.70;99.90;;;;;;5059782;28;20207;-79
2023/08/07 06:36:21;;;;;;;4.35;3.65;;;15.70;99.90;;;;;;5060202;28;20251;-80
2023/08/07 06:38:48;;;;;;;6.18;3.75;;;15.80;99.90;;;;;;5070791;28;20230;-79
2023/08/07 06:41:15;;;;;;;6.43;4.45;;;15.70;99.90;;;;;;5074098;28;20230;-81
2023/08/07 06:43:42;;;;;;;5.18;3.75;;;15.70;99.90;;;;;;5069538;28;20225;-80
2023/08/07 06:46:11;;;;;;;7.20;3.88;;;15.80;99.90;;;;;;5073733;28;20198;-80
2023/08/07 06:48:39;;;;;;;6.65;3.90;;;15.80;99.90;;;;;;5051755;28;20231;-80
2023/08/07 06:51:06;;;;;;;4.82;3.60;;;15.90;99.90;;;;;;5074284;28;20742;-80
2023/08/07 06:53:33;;;;;;;5.07;3.50;;;15.90;99.90;;;;;;5058524;28;20206;-80
2023/08/07 06:55:59;;;;;;;5.45;3.45;;;15.90;99.90;;;;;;5058240;28;20218;-80
2023/08/07 06:58:26;;;;;;;5.03;3.47;;;15.90;99.90;;;;;;5057432;28;20233;-80
2023/08/07 07:00:53;;;;;;;3.95;3.00;;;16.00;99.90;;;;;;5058601;28;20600;-80
2023/08/07 07:03:20;;;;;;;4.75;3.30;;;16.00;99.90;;;;;;5059493;28;20203;-80
2023/08/07 07:05:50;;;;;;;7.32;3.72;;;16.10;99.90;;;;;;5059820;28;20201;-80
2023/08/07 07:08:16;;;;;;;3.58;2.90;;;16.10;99.90;;;;;;5059353;28;20223;-80
2023/08/07 07:10:43;;;;;;;4.43;2.92;;;16.20;99.90;;;;;;5059436;28;20647;-80
2023/08/07 07:13:10;;;;;;;3.33;3.00;;;16.20;99.90;;;;;;5060082;28;20213;-79
2023/08/07 07:15:37;;;;;;;4.43;3.10;;;16.20;99.90;;;;;;5059184;28;20207;-80
2023/08/07 07:18:04;;;;;;;4.38;2.95;;;16.10;99.90;;;;;;5059129;28;20219;-81
2023/08/07 07:20:31;;;;;;;3.42;2.95;;;16.10;99.90;;;;;;5059502;28;20206;-80
2023/08/07 07:22:59;;;;;;;5.38;3.17;;;16.00;99.90;;;;;;5059579;28;20270;-79
2023/08/07 07:25:26;;;;;;;3.05;2.75;;;16.00;99.90;;;;;;5057746;28;20225;-80
2023/08/07 07:27:53;;;;;;;5.13;2.90;;;16.00;99.90;;;;;;5057787;28;20220;-80
2023/08/07 07:30:23;;;;;;;4.88;3.00;;;15.90;99.90;;;;;;5059390;28;20661;-80
2023/08/07 07:32:51;;;;;;;5.72;3.30;;;15.90;99.90;;;;;;5059342;28;20203;-80
2023/08/07 07:35:18;;;;;;;5.68;3.42;;;15.70;99.90;;;;;;5077138;28;20228;-80
2023/08/07 07:37:45;;;;;;;3.95;3.30;;;15.70;99.90;;;;;;5060350;28;20676;-79
2023/08/07 07:40:14;;;;;;;6.15;3.58;;;15.60;99.90;;;;;;5059271;28;20271;-80
2023/08/07 07:42:41;;;;;;;4.10;3.10;;;15.60;99.90;;;;;;5051173;28;20199;-80
2023/08/07 07:45:08;;;;;;;4.13;3.20;;;15.50;99.90;;;;;;5057653;28;20282;-80
2023/08/07 07:47:35;;;;;;;6.28;3.80;;;15.60;99.90;;;;;;5058010;28;20218;-80
2023/08/07 07:50:07;;;;;;;6.55;3.75;;;15.60;99.90;;;;;;5058464;28;20213;-80
2023/08/07 07:52:35;;;;;;;5.78;3.55;;;15.60;99.90;;;;;;5057682;28;20634;-79
2023/08/07 07:55:02;;;;;;;4.95;3.90;;;15.50;99.90;;;;;;5058144;28;20205;-80
2023/08/07 07:57:30;;;;;;;5.47;4.25;;;15.70;99.90;;;;;;5057202;28;20218;-80
2023/08/07 07:59:57;;;;;;;5.95;4.53;;;15.70;99.90;;;;;;5059527;28;20294;-81
2023/08/07 08:02:24;;;;;;;10.60;4.28;;;15.80;99.90;;;;;;5059741;28;20307;-81
2023/08/07 08:04:52;;;;;;;8.88;4.35;;;15.90;99.90;;;;;;5052165;28;20249;-80
2023/08/07 08:07:19;;;;;;;7.88;3.80;;;16.00;99.90;;;;;;5058740;28;20262;-80
2023/08/07 08:09:47;;;;;;;5.50;4.32;;;16.20;99.90;;;;;;5059384;28;20252;-84
2023/08/07 08:12:16;;;;;;;7.35;3.92;;;16.30;99.90;;;;;;5057509;28;20195;-79
2023/08/07 08:14:44;;;;;;;7.75;4.10;;;16.40;99.90;;;;;;5058752;28;20199;-79
2023/08/07 08:17:11;;;;;;;5.00;3.80;;;16.40;99.90;;;;;;5058306;28;20215;-80
2023/08/07 08:19:38;;;;;;;5.10;3.58;;;16.60;99.90;;;;;;5059793;28;20731;-80
2023/08/07 08:22:05;;;;;;;6.60;3.88;;;16.60;99.90;;;;;;5058299;28;20207;-80
2023/08/07 08:24:32;;;;;;;6.25;3.67;;;16.70;99.90;;;;;;5058219;28;20207;-80
2023/08/07 08:27:00;;;;;;;6.60;3.42;;;16.60;99.90;;;;;;5058080;28;20199;-80
2023/08/07 08:29:27;;;;;;;5.68;3.35;;;16.40;99.90;;;;;;5058465;28;20225;-79
2023/08/07 08:31:56;;;;;;;5.53;3.40;;;16.30;99.90;;;;;;5058810;28;20226;-81
2023/08/07 08:34:23;;;;;;;4.10;3.15;;;16.20;99.90;;;;;;5057522;28;20210;-79
2023/08/07 08:36:50;;;;;;;4.35;3.10;;;16.30;99.90;;;;;;5056517;28;20284;-80
2023/08/07 08:39:17;;;;;;;5.15;3.30;;;16.30;99.90;;;;;;5057685;28;20269;-80
2023/08/07 08:41:48;;;;;;;6.38;3.08;;;16.20;99.90;;;;;;5056952;28;20606;-80
2023/08/07 08:44:15;;;;;;;6.05;3.88;;;16.10;99.90;;;;;;5057507;28;20199;-80
2023/08/07 08:46:43;;;;;;;4.70;3.17;;;16.00;99.90;;;;;;5057078;28;20295;-80
2023/08/07 08:49:14;;;;;;;2.95;2.65;;;15.90;99.90;;;;;;5056539;28;20720;-80
2023/08/07 08:51:42;;;;;;;4.38;3.03;;;16.00;99.90;;;;;;5056435;28;20541;-79
2023/08/07 08:54:09;;;;;;;4.13;2.72;;;16.00;99.90;;;;;;5061550;28;20616;-81
2023/08/07 08:56:38;;;;;;;4.13;2.80;;;16.00;99.90;;;;;;5061087;28;20218;-79
2023/08/07 08:59:05;;;;;;;5.15;2.90;;;16.00;99.90;;;;;;5061315;28;20219;-80
2023/08/07 09:01:32;;;;;;;3.85;2.70;;;16.00;99.90;;;;;;5060843;28;20199;-80
2023/08/07 09:03:59;;;;;;;3.42;2.38;;;16.00;99.90;;;;;;5061673;28;20203;-80
2023/08/07 09:06:31;;;;;;;5.85;2.75;;;16.20;99.90;;;;;;5060082;28;20412;-80
2023/08/07 09:09:00;;;;;;;4.03;2.70;;;16.40;99.90;;;;;;5060169;28;20219;-80
2023/08/07 09:11:28;;;;;;;2.72;2.47;;;16.60;99.90;;;;;;5060295;28;20253;-80
2023/08/07 09:13:57;;;;;;;5.40;2.83;;;16.70;99.90;;;;;;5060432;28;20723;-80
2023/08/07 09:16:25;;;;;;;4.10;2.60;;;17.00;99.90;;;;;;5060660;28;20222;-80
2023/08/07 09:18:54;;;;;;;3.08;2.45;;;17.40;99.90;;;;;;5062042;28;20264;-81
2023/08/07 09:21:22;;;;;;;5.28;2.63;;;17.50;99.90;;;;;;5062153;28;20201;-80
2023/08/07 09:23:50;;;;;;;5.15;2.55;;;17.50;99.90;;;;;;5062242;28;20199;-81
2023/08/07 09:26:24;;;;;;;3.80;2.58;;;17.40;99.90;;;;;;5061181;28;20260;-80
2023/08/07 09:28:53;;;;;;;5.38;2.90;;;17.40;99.90;;;;;;5053755;28;20729;-80
2023/08/07 09:31:20;;;;;;;8.80;3.03;;;16.90;99.90;;;;;;5062195;28;20195;-81
2023/08/07 09:33:48;;;;;;;5.25;2.72;;;16.50;99.90;;;;;;5062103;28;20569;-80
2023/08/07 09:36:17;;;;;;;3.70;2.40;;;16.30;99.90;;;;;;5060580;28;20199;-80
2023/08/07 09:38:44;;;;;;;2.00;1.67;;;16.20;99.90;;;;;;5059920;28;20304;-82
2023/08/07 09:41:12;;;;;;;2.83;2.10;;;16.20;99.90;;;;;;5060249;28;20226;-81
2023/08/07 09:43:39;;;;;;;2.78;1.80;;;16.00;99.90;;;;;;5059828;28;20234;-81
2023/08/07 09:46:06;;;;;;;6.50;2.00;;;16.20;99.90;;;;;;5059979;28;20286;-80
2023/08/07 09:48:40;;;;;;;2.63;2.15;;;16.40;99.90;;;;;;5058439;28;20314;-80
2023/08/07 09:51:07;;;;;;;8.07;2.20;;;16.80;99.90;;;;;;5060618;28;20203;-80
2023/08/07 09:53:34;;;;;;;4.13;2.22;;;17.40;99.90;;;;;;5057148;28;20207;-81
2023/08/07 09:56:01;;;;;;;4.88;2.30;;;17.60;99.90;;;;;;5059047;28;20207;-80
2023/08/07 09:58:29;;;;;;;7.63;2.50;;;17.70;99.90;;;;;;5058969;28;20229;-80
2023/08/07 10:00:59;;;;;;;8.20;2.80;;;18.10;99.90;;;;;;5051944;28;20250;-80
2023/08/07 10:03:26;;;;;;;6.10;2.60;;;18.20;99.90;;;;;;5067702;28;20626;-80
2023/08/07 10:05:54;;;;;;;5.70;2.58;;;18.30;99.90;;;;;;5060389;28;20214;-80
2023/08/07 10:08:22;;;;;;;8.48;2.33;;;18.00;99.90;;;;;;5060722;28;20772;-81
2023/08/07 10:10:49;;;;;;;3.83;1.98;;;17.70;99.90;;;;;;5060187;28;20647;-81
2023/08/07 10:13:16;;;;;;;8.98;2.60;;;17.60;99.90;;;;;;5059104;28;20600;-81
2023/08/07 10:15:45;;;;;;;7.78;2.67;;;17.50;99.90;;;;;;5058073;28;20642;-80
2023/08/07 10:18:13;;;;;;;6.95;2.63;;;17.30;99.90;;;;;;5059151;28;20334;-80
2023/08/07 10:20:42;;;;;;;7.70;2.42;;;17.10;99.90;;;;;;5060343;28;20206;-80
2023/08/07 10:23:10;;;;;;;7.15;2.20;;;16.20;99.90;;;;;;5058233;28;20195;-81
2023/08/07 10:25:41;;;;;;;5.90;2.10;;;16.10;99.90;;;;;;5057859;28;20221;-80
2023/08/07 10:28:11;;;;;;;7.05;2.28;;;16.10;99.90;;;;;;5057481;28;20229;-81
2023/08/07 10:30:39;;;;;;;2.80;1.85;;;16.20;99.90;;;;;;5057526;28;20584;-80
2023/08/07 10:33:09;;;;;;;3.63;1.92;;;16.40;99.90;;;;;;5056647;28;20669;-80
2023/08/07 10:35:36;;;;;;;5.45;2.20;;;16.80;99.90;;;;;;5057587;28;20207;-80
2023/08/07 10:38:10;;;;;;;3.72;1.98;;;16.70;99.90;;;;;;5057736;28;20230;-80
2023/08/07 10:41:00;;;;;;;5.28;1.70;;;17.00;99.90;;;;;;5058457;28;20202;-80
2023/08/07 10:43:27;;;;;;;4.25;2.20;;;17.30;99.90;;;;;;5076290;28;20259;-81
2023/08/07 10:45:54;;;;;;;7.25;2.45;;;17.80;99.90;;;;;;5064585;28;20237;-81
2023/08/07 10:48:23;;;;;;;5.30;2.25;;;18.20;99.90;;;;;;5063961;28;20227;-80
2023/08/07 10:50:52;;;;;;;3.70;1.98;;;18.20;99.90;;;;;;5060235;28;20202;-80
2023/08/07 10:53:21;;;;;;;6.47;2.22;;;18.30;99.90;;;;;;5063107;28;20580;-80
2023/08/07 10:55:48;;;;;;;4.35;2.00;;;18.40;99.90;;;;;;5057427;28;20294;-80
2023/08/07 10:58:25;;;;;;;4.78;2.00;;;18.00;99.90;;;;;;5057624;28;20302;-80
2023/08/07 11:00:53;;;;;;;5.43;2.00;;;17.70;99.90;;;;;;5058032;28;20435;-81
2023/08/07 11:03:35;;;;;;;7.85;1.98;;;17.60;99.90;;;;;;5057608;28;20291;-80
2023/08/07 11:06:02;;;;;;;4.75;2.30;;;17.90;99.90;;;;;;5049630;28;20194;-80
2023/08/07 11:08:31;;;;;;;4.97;2.05;;;18.00;99.90;;;;;;5057715;28;20215;-81
2023/08/07 11:11:04;;;;;;;5.63;1.75;;;18.00;99.90;;;;;;5056918;28;20199;-80
2023/08/07 11:13:31;;;;;;;5.22;2.10;;;17.70;99.90;;;;;;5057737;28;20298;-80
2023/08/07 11:15:59;;;;;;;5.13;2.72;;;18.00;99.90;;;;;;5057944;28;20209;-81
2023/08/07 11:18:26;;;;;;;4.68;1.77;;;18.10;99.90;;;;;;5057394;28;20227;-80
2023/08/07 11:20:56;;;;;;;4.10;1.80;;;18.10;99.90;;;;;;5058631;28;20206;-80
2023/08/07 11:23:24;;;;;;;7.78;2.47;;;18.10;99.90;;;;;;5063902;28;20199;-80
2023/08/07 11:25:52;;;;;;;5.05;2.10;;;18.80;99.90;;;;;;5057356;28;20218;-81
2023/08/07 11:28:20;;;;;;;6.75;2.00;;;19.10;99.90;;;;;;5055200;28;20253;-81
2023/08/07 11:30:48;;;;;;;4.65;2.00;;;18.90;99.90;;;;;;5055179;28;20199;-81
2023/08/07 11:33:15;;;;;;;5.72;2.50;;;19.00;99.90;;;;;;5054602;28;20203;-81
2023/08/07 11:35:43;;;;;;;5.93;1.98;;;19.00;99.90;;;;;;5056255;28;20601;-80
2023/08/07 11:38:11;;;;;;;7.57;2.35;;;19.00;99.90;;;;;;5057979;28;20215;-81
2023/08/07 11:40:38;;;;;;;5.45;2.17;;;19.20;99.90;;;;;;5058214;28;20415;-81
2023/08/07 11:43:05;;;;;;;7.18;2.50;;;19.70;99.90;;;;;;5058029;28;20285;-80
2023/08/07 11:45:31;;;;;;;5.22;1.77;;;19.60;99.90;;;;;;5058125;28;20199;-80
2023/08/07 11:47:59;;;;;;;5.05;2.15;;;19.90;99.90;;;;;;5058085;28;20779;-80
2023/08/07 11:50:28;;;;;;;4.82;1.98;;;19.90;99.90;;;;;;5057620;28;20199;-82
2023/08/07 11:53:00;;;;;;;5.63;2.58;;;19.70;99.90;;;;;;5058066;28;20564;-81
2023/08/07 11:55:29;;;;;;;4.88;1.88;;;20.30;99.90;;;;;;5064330;28;20261;-80
2023/08/07 11:57:56;;;;;;;4.50;1.90;;;20.30;99.90;;;;;;5058133;28;20237;-80
2023/08/07 12:00:27;;;;;;;6.10;1.67;;;19.80;99.90;;;;;;5057938;28;20658;-82
2023/08/07 12:02:54;;;;;;;3.47;1.58;;;17.40;99.90;;;;;;5059208;28;20211;-82
2023/08/07 12:05:21;;;;;;;5.70;2.00;;;16.80;99.90;;;;;;5056326;28;20230;-82
2023/08/07 12:07:48;;;;;;;4.88;2.00;;;16.30;99.90;;;;;;5056248;28;20318;-81
2023/08/07 12:10:15;;;;;;;5.80;2.25;;;16.10;99.90;;;;;;5057924;28;20238;-80
2023/08/07 12:12:46;;;;;;;8.80;2.33;;;16.20;99.90;;;;;;5056655;28;20215;-81
2023/08/07 12:15:13;;;;;;;5.30;2.30;;;16.30;99.90;;;;;;5057427;28;20283;-81
2023/08/07 12:17:40;;;;;;;5.63;2.40;;;16.50;99.90;;;;;;5056485;28;20223;-81
2023/08/07 12:20:11;;;;;;;4.97;2.20;;;16.80;99.90;;;;;;5048603;28;20218;-81
2023/08/07 12:22:38;;;;;;;5.82;2.80;;;17.20;99.90;;;;;;5057692;28;20257;-81
2023/08/07 12:25:06;;;;;;;4.88;1.90;;;17.50;99.90;;;;;;5057128;28;20199;-79
2023/08/07 12:27:32;;;;;;;5.63;2.50;;;17.90;99.90;;;;;;5058142;28;20231;-79
2023/08/07 12:30:01;;;;;;;9.80;2.83;;;17.80;99.90;;;;;;5059520;28;20246;-82
2023/08/07 12:32:27;;;;;;;10.40;3.08;;;17.70;99.90;;;;;;5059684;28;20198;-83
2023/08/07 12:34:54;;;;;;;5.53;2.28;;;17.30;99.90;;;;;;5076257;28;20723;-80
2023/08/07 12:37:22;;;;;;;8.32;2.50;;;17.10;99.90;;;;;;5059267;28;20667;-84
2023/08/07 12:39:49;;;;;;;4.97;2.00;;;17.00;99.90;;;;;;5059302;28;20217;-81
2023/08/07 12:42:16;;;;;;;6.22;2.40;;;16.90;99.90;;;;;;5060117;28;20313;-81
2023/08/07 12:44:43;;;;;;;5.53;2.30;;;16.70;99.90;;;;;;5060038;28;20275;-81
2023/08/07 12:47:11;;;;;;;7.47;2.67;;;16.50;99.90;;;;;;5058828;28;20207;-81
2023/08/07 12:49:38;;;;;;;6.82;2.53;;;16.00;99.90;;;;;;5059891;28;20205;-81
2023/08/07 12:52:05;;;;;;;6.20;2.63;;;15.80;99.90;;;;;;5059382;28;20210;-82